sensor_id;sensor_type;location;lat;lon;timestamp;P1;durP1;ratioP1;P2;durP2;ratioP2
35689;SDS011;26977;44.830;-0.674;2022-12-07T00:01:13;28.75;;;17.70;;
35689;SDS011;26977;44.830;-0.674;2022-12-07T00:03:41;25.70;;;16.45;;
35689;SDS011;26977;44.830;-0.674;2022-12-07T00:06:08;28.80;;;17.38;;
35689;SDS011;26977;44.830;-0.674;2022-12-07T00:08:36;27.98;;;17.63;;
35689;SDS011;26977;44.830;-0.674;2022-12-07T00:11:07;27.40;;;17.55;;
35689;SDS011;26977;44.830;-0.674;2022-12-07T00:13:38;26.75;;;17.73;;
35689;SDS011;26977;44.830;-0.674;2022-12-07T00:16:05;26.35;;;17.27;;
35689;SDS011;26977;44.830;-0.674;2022-12-07T00:18:33;26.88;;;17.52;;
35689;SDS011;26977;44.830;-0.674;2022-12-07T00:21:04;24.58;;;16.73;;
35689;SDS011;26977;44.830;-0.674;2022-12-07T00:23:31;28.00;;;17.30;;
35689;SDS011;26977;44.830;-0.674;2022-12-07T00:26:08;27.58;;;17.25;;
35689;SDS011;26977;44.830;-0.674;2022-12-07T00:28:35;29.10;;;17.15;;
35689;SDS011;26977;44.830;-0.674;2022-12-07T00:31:03;26.38;;;17.15;;
35689;SDS011;26977;44.830;-0.674;2022-12-07T00:33:31;31.42;;;17.95;;
35689;SDS011;26977;44.830;-0.674;2022-12-07T00:35:58;28.15;;;17.30;;
35689;SDS011;26977;44.830;-0.674;2022-12-07T00:38:26;30.10;;;18.25;;
35689;SDS011;26977;44.830;-0.674;2022-12-07T00:40:57;28.88;;;17.55;;
35689;SDS011;26977;44.830;-0.674;2022-12-07T00:43:29;31.52;;;18.83;;
35689;SDS011;26977;44.830;-0.674;2022-12-07T00:45:55;28.60;;;17.73;;
35689;SDS011;26977;44.830;-0.674;2022-12-07T00:48:21;31.50;;;18.30;;
35689;SDS011;26977;44.830;-0.674;2022-12-07T00:50:48;32.00;;;18.95;;
35689;SDS011;26977;44.830;-0.674;2022-12-07T00:53:14;29.25;;;18.27;;
35689;SDS011;26977;44.830;-0.674;2022-12-07T00:55:40;30.75;;;18.80;;
35689;SDS011;26977;44.830;-0.674;2022-12-07T00:58:06;30.85;;;18.85;;
35689;SDS011;26977;44.830;-0.674;2022-12-07T01:00:31;31.40;;;18.75;;
35689;SDS011;26977;44.830;-0.674;2022-12-07T01:02:58;32.42;;;19.67;;
35689;SDS011;26977;44.830;-0.674;2022-12-07T01:05:24;37.38;;;20.30;;
35689;SDS011;26977;44.830;-0.674;2022-12-07T01:07:50;33.50;;;19.25;;
35689;SDS011;26977;44.830;-0.674;2022-12-07T01:10:15;33.55;;;20.40;;
35689;SDS011;26977;44.830;-0.674;2022-12-07T01:12:41;35.03;;;20.15;;
35689;SDS011;26977;44.830;-0.674;2022-12-07T01:15:07;33.50;;;20.77;;
35689;SDS011;26977;44.830;-0.674;2022-12-07T01:17:33;37.55;;;22.30;;
35689;SDS011;26977;44.830;-0.674;2022-12-07T01:19:59;41.30;;;21.63;;
35689;SDS011;26977;44.830;-0.674;2022-12-07T01:22:25;39.25;;;22.50;;
35689;SDS011;26977;44.830;-0.674;2022-12-07T01:24:51;38.10;;;21.88;;
35689;SDS011;26977;44.830;-0.674;2022-12-07T01:27:17;39.08;;;22.85;;
35689;SDS011;26977;44.830;-0.674;2022-12-07T01:29:43;41.13;;;24.30;;
35689;SDS011;26977;44.830;-0.674;2022-12-07T01:32:08;44.72;;;23.75;;
35689;SDS011;26977;44.830;-0.674;2022-12-07T01:34:34;44.45;;;24.40;;
35689;SDS011;26977;44.830;-0.674;2022-12-07T01:37:00;45.22;;;25.20;;
35689;SDS011;26977;44.830;-0.674;2022-12-07T01:39:26;48.58;;;25.38;;
35689;SDS011;26977;44.830;-0.674;2022-12-07T01:41:52;50.88;;;25.80;;
35689;SDS011;26977;44.830;-0.674;2022-12-07T01:44:22;48.83;;;26.52;;
35689;SDS011;26977;44.830;-0.674;2022-12-07T01:46:50;46.15;;;25.85;;
35689;SDS011;26977;44.830;-0.674;2022-12-07T01:49:37;55.63;;;27.42;;
35689;SDS011;26977;44.830;-0.674;2022-12-07T01:52:22;55.60;;;27.58;;
35689;SDS011;26977;44.830;-0.674;2022-12-07T01:54:52;54.65;;;26.25;;
35689;SDS011;26977;44.830;-0.674;2022-12-07T01:57:22;51.85;;;26.60;;
35689;SDS011;26977;44.830;-0.674;2022-12-07T01:59:48;54.50;;;28.38;;
35689;SDS011;26977;44.830;-0.674;2022-12-07T02:02:18;57.90;;;27.75;;
35689;SDS011;26977;44.830;-0.674;2022-12-07T02:04:50;55.45;;;27.40;;
35689;SDS011;26977;44.830;-0.674;2022-12-07T02:07:18;57.83;;;27.65;;
35689;SDS011;26977;44.830;-0.674;2022-12-07T02:09:44;57.55;;;28.85;;
35689;SDS011;26977;44.830;-0.674;2022-12-07T02:12:10;61.30;;;29.52;;
35689;SDS011;26977;44.830;-0.674;2022-12-07T02:14:36;62.65;;;29.95;;
35689;SDS011;26977;44.830;-0.674;2022-12-07T02:28:34;64.47;;;29.65;;
35689;SDS011;26977;44.830;-0.674;2022-12-07T02:31:06;65.07;;;29.92;;
35689;SDS011;26977;44.830;-0.674;2022-12-07T02:33:44;60.05;;;28.52;;
35689;SDS011;26977;44.830;-0.674;2022-12-07T02:36:23;66.03;;;29.38;;
35689;SDS011;26977;44.830;-0.674;2022-12-07T02:39:00;63.85;;;28.85;;
35689;SDS011;26977;44.830;-0.674;2022-12-07T02:42:15;71.65;;;30.25;;
35689;SDS011;26977;44.830;-0.674;2022-12-07T02:44:27;68.88;;;29.55;;
35689;SDS011;26977;44.830;-0.674;2022-12-07T02:47:05;80.68;;;30.05;;
35689;SDS011;26977;44.830;-0.674;2022-12-07T02:49:35;85.32;;;29.48;;
35689;SDS011;26977;44.830;-0.674;2022-12-07T02:52:03;99.88;;;29.98;;
35689;SDS011;26977;44.830;-0.674;2022-12-07T02:54:29;73.40;;;28.77;;
35689;SDS011;26977;44.830;-0.674;2022-12-07T02:59:54;66.15;;;28.48;;
35689;SDS011;26977;44.830;-0.674;2022-12-07T03:16:26;97.80;;;27.50;;
35689;SDS011;26977;44.830;-0.674;2022-12-07T03:18:59;66.03;;;28.20;;
35689;SDS011;26977;44.830;-0.674;2022-12-07T03:21:38;70.28;;;28.52;;
35689;SDS011;26977;44.830;-0.674;2022-12-07T03:24:08;67.55;;;29.65;;
35689;SDS011;26977;44.830;-0.674;2022-12-07T03:26:39;105.20;;;28.45;;
35689;SDS011;26977;44.830;-0.674;2022-12-07T03:29:14;79.55;;;32.03;;
35689;SDS011;26977;44.830;-0.674;2022-12-07T03:31:55;79.82;;;29.45;;
35689;SDS011;26977;44.830;-0.674;2022-12-07T03:34:29;77.32;;;28.85;;
35689;SDS011;26977;44.830;-0.674;2022-12-07T03:37:03;69.68;;;28.65;;
35689;SDS011;26977;44.830;-0.674;2022-12-07T03:39:45;71.85;;;25.92;;
35689;SDS011;26977;44.830;-0.674;2022-12-07T03:42:31;53.92;;;24.98;;
35689;SDS011;26977;44.830;-0.674;2022-12-07T03:44:59;92.55;;;26.67;;
35689;SDS011;26977;44.830;-0.674;2022-12-07T03:47:34;101.47;;;26.05;;
35689;SDS011;26977;44.830;-0.674;2022-12-07T03:53:15;139.30;;;27.15;;
35689;SDS011;26977;44.830;-0.674;2022-12-07T03:55:45;216.93;;;33.35;;
35689;SDS011;26977;44.830;-0.674;2022-12-07T03:58:16;110.63;;;25.98;;
35689;SDS011;26977;44.830;-0.674;2022-12-07T04:00:46;98.80;;;28.40;;
35689;SDS011;26977;44.830;-0.674;2022-12-07T04:03:12;85.13;;;26.65;;
35689;SDS011;26977;44.830;-0.674;2022-12-07T04:05:38;92.72;;;26.73;;
35689;SDS011;26977;44.830;-0.674;2022-12-07T04:08:04;126.38;;;29.10;;
35689;SDS011;26977;44.830;-0.674;2022-12-07T04:10:30;74.57;;;27.52;;
35689;SDS011;26977;44.830;-0.674;2022-12-07T04:12:56;65.85;;;28.00;;
35689;SDS011;26977;44.830;-0.674;2022-12-07T04:15:21;157.15;;;28.50;;
35689;SDS011;26977;44.830;-0.674;2022-12-07T04:17:47;68.38;;;27.75;;
35689;SDS011;26977;44.830;-0.674;2022-12-07T04:20:13;76.75;;;29.92;;
35689;SDS011;26977;44.830;-0.674;2022-12-07T04:22:39;91.75;;;28.90;;
35689;SDS011;26977;44.830;-0.674;2022-12-07T04:25:04;175.82;;;33.55;;
35689;SDS011;26977;44.830;-0.674;2022-12-07T04:27:30;102.93;;;29.42;;
35689;SDS011;26977;44.830;-0.674;2022-12-07T04:29:56;171.70;;;30.48;;
35689;SDS011;26977;44.830;-0.674;2022-12-07T04:32:22;90.50;;;29.17;;
35689;SDS011;26977;44.830;-0.674;2022-12-07T04:34:48;102.38;;;29.58;;
35689;SDS011;26977;44.830;-0.674;2022-12-07T04:37:14;134.07;;;29.33;;
35689;SDS011;26977;44.830;-0.674;2022-12-07T04:39:40;230.63;;;32.70;;
35689;SDS011;26977;44.830;-0.674;2022-12-07T04:42:06;133.18;;;30.35;;
35689;SDS011;26977;44.830;-0.674;2022-12-07T04:44:32;198.40;;;33.63;;
35689;SDS011;26977;44.830;-0.674;2022-12-07T04:46:57;106.82;;;28.38;;
35689;SDS011;26977;44.830;-0.674;2022-12-07T04:49:24;94.10;;;27.77;;
35689;SDS011;26977;44.830;-0.674;2022-12-07T04:51:51;127.68;;;31.23;;
35689;SDS011;26977;44.830;-0.674;2022-12-07T04:54:16;99.97;;;31.48;;
35689;SDS011;26977;44.830;-0.674;2022-12-07T04:56:42;152.18;;;31.55;;
35689;SDS011;26977;44.830;-0.674;2022-12-07T04:59:09;118.82;;;30.35;;
35689;SDS011;26977;44.830;-0.674;2022-12-07T05:01:39;148.45;;;30.30;;
35689;SDS011;26977;44.830;-0.674;2022-12-07T05:04:05;281.00;;;34.17;;
35689;SDS011;26977;44.830;-0.674;2022-12-07T05:06:31;174.10;;;32.33;;
35689;SDS011;26977;44.830;-0.674;2022-12-07T05:08:57;136.05;;;31.75;;
35689;SDS011;26977;44.830;-0.674;2022-12-07T05:11:22;109.60;;;30.83;;
35689;SDS011;26977;44.830;-0.674;2022-12-07T05:14:04;152.60;;;30.10;;
35689;SDS011;26977;44.830;-0.674;2022-12-07T05:16:48;93.78;;;29.20;;
35689;SDS011;26977;44.830;-0.674;2022-12-07T05:19:16;89.93;;;29.92;;
35689;SDS011;26977;44.830;-0.674;2022-12-07T05:21:42;90.88;;;31.98;;
35689;SDS011;26977;44.830;-0.674;2022-12-07T05:24:08;111.07;;;32.70;;
35689;SDS011;26977;44.830;-0.674;2022-12-07T05:26:36;94.00;;;32.28;;
35689;SDS011;26977;44.830;-0.674;2022-12-07T05:29:02;92.72;;;33.03;;
35689;SDS011;26977;44.830;-0.674;2022-12-07T05:31:28;95.07;;;34.50;;
35689;SDS011;26977;44.830;-0.674;2022-12-07T05:33:54;94.25;;;34.78;;
35689;SDS011;26977;44.830;-0.674;2022-12-07T05:36:21;102.70;;;35.53;;
35689;SDS011;26977;44.830;-0.674;2022-12-07T05:38:47;105.15;;;36.13;;
35689;SDS011;26977;44.830;-0.674;2022-12-07T05:41:14;104.32;;;35.25;;
35689;SDS011;26977;44.830;-0.674;2022-12-07T05:44:00;110.97;;;35.63;;
35689;SDS011;26977;44.830;-0.674;2022-12-07T05:46:26;105.57;;;35.75;;
35689;SDS011;26977;44.830;-0.674;2022-12-07T05:48:52;106.90;;;35.20;;
35689;SDS011;26977;44.830;-0.674;2022-12-07T05:51:18;111.15;;;36.35;;
35689;SDS011;26977;44.830;-0.674;2022-12-07T05:53:44;106.80;;;36.55;;
35689;SDS011;26977;44.830;-0.674;2022-12-07T05:56:10;106.93;;;35.10;;
35689;SDS011;26977;44.830;-0.674;2022-12-07T05:58:35;108.80;;;36.63;;
35689;SDS011;26977;44.830;-0.674;2022-12-07T06:01:19;99.28;;;34.65;;
35689;SDS011;26977;44.830;-0.674;2022-12-07T06:03:45;97.45;;;35.53;;
35689;SDS011;26977;44.830;-0.674;2022-12-07T06:06:11;91.18;;;34.20;;
35689;SDS011;26977;44.830;-0.674;2022-12-07T06:08:36;72.53;;;28.50;;
35689;SDS011;26977;44.830;-0.674;2022-12-07T06:11:02;80.78;;;30.65;;
35689;SDS011;26977;44.830;-0.674;2022-12-07T06:13:47;77.65;;;32.08;;
35689;SDS011;26977;44.830;-0.674;2022-12-07T06:16:12;80.53;;;30.15;;
35689;SDS011;26977;44.830;-0.674;2022-12-07T06:18:38;74.15;;;30.45;;
35689;SDS011;26977;44.830;-0.674;2022-12-07T06:21:04;74.25;;;30.10;;
35689;SDS011;26977;44.830;-0.674;2022-12-07T06:23:29;71.70;;;29.00;;
35689;SDS011;26977;44.830;-0.674;2022-12-07T06:25:55;75.10;;;29.63;;
35689;SDS011;26977;44.830;-0.674;2022-12-07T06:28:21;77.95;;;31.48;;
35689;SDS011;26977;44.830;-0.674;2022-12-07T06:30:46;73.22;;;29.77;;
35689;SDS011;26977;44.830;-0.674;2022-12-07T06:33:12;71.68;;;30.10;;
35689;SDS011;26977;44.830;-0.674;2022-12-07T06:35:37;72.32;;;30.25;;
35689;SDS011;26977;44.830;-0.674;2022-12-07T06:38:03;71.15;;;28.88;;
35689;SDS011;26977;44.830;-0.674;2022-12-07T06:40:29;76.07;;;30.02;;
35689;SDS011;26977;44.830;-0.674;2022-12-07T06:42:54;72.63;;;30.35;;
35689;SDS011;26977;44.830;-0.674;2022-12-07T06:45:20;73.93;;;29.88;;
35689;SDS011;26977;44.830;-0.674;2022-12-07T06:47:46;69.43;;;29.42;;
35689;SDS011;26977;44.830;-0.674;2022-12-07T06:50:11;64.25;;;28.23;;
35689;SDS011;26977;44.830;-0.674;2022-12-07T06:52:37;66.88;;;28.42;;
35689;SDS011;26977;44.830;-0.674;2022-12-07T06:55:02;65.72;;;28.17;;
35689;SDS011;26977;44.830;-0.674;2022-12-07T06:57:28;60.75;;;26.40;;
35689;SDS011;26977;44.830;-0.674;2022-12-07T06:59:54;65.20;;;28.48;;
35689;SDS011;26977;44.830;-0.674;2022-12-07T07:02:19;69.72;;;28.73;;
35689;SDS011;26977;44.830;-0.674;2022-12-07T07:04:45;67.03;;;29.65;;
35689;SDS011;26977;44.830;-0.674;2022-12-07T07:07:11;66.40;;;28.10;;
35689;SDS011;26977;44.830;-0.674;2022-12-07T07:09:36;66.25;;;28.67;;
35689;SDS011;26977;44.830;-0.674;2022-12-07T07:12:02;66.85;;;28.88;;
35689;SDS011;26977;44.830;-0.674;2022-12-07T07:14:28;71.30;;;30.65;;
35689;SDS011;26977;44.830;-0.674;2022-12-07T07:16:53;65.13;;;28.58;;
35689;SDS011;26977;44.830;-0.674;2022-12-07T07:19:19;66.97;;;29.80;;
35689;SDS011;26977;44.830;-0.674;2022-12-07T07:21:45;69.78;;;31.52;;
35689;SDS011;26977;44.830;-0.674;2022-12-07T07:24:10;71.22;;;31.27;;
35689;SDS011;26977;44.830;-0.674;2022-12-07T07:26:36;69.53;;;30.45;;
35689;SDS011;26977;44.830;-0.674;2022-12-07T07:29:02;75.55;;;32.08;;
35689;SDS011;26977;44.830;-0.674;2022-12-07T07:31:27;75.20;;;31.65;;
35689;SDS011;26977;44.830;-0.674;2022-12-07T07:33:53;71.50;;;31.75;;
35689;SDS011;26977;44.830;-0.674;2022-12-07T07:36:19;73.75;;;31.55;;
35689;SDS011;26977;44.830;-0.674;2022-12-07T07:38:44;67.75;;;28.98;;
35689;SDS011;26977;44.830;-0.674;2022-12-07T07:41:10;72.10;;;30.95;;
35689;SDS011;26977;44.830;-0.674;2022-12-07T07:43:35;70.13;;;31.65;;
35689;SDS011;26977;44.830;-0.674;2022-12-07T07:46:01;74.35;;;31.10;;
35689;SDS011;26977;44.830;-0.674;2022-12-07T07:48:27;68.55;;;29.25;;
35689;SDS011;26977;44.830;-0.674;2022-12-07T07:50:52;66.85;;;30.13;;
35689;SDS011;26977;44.830;-0.674;2022-12-07T07:53:18;64.53;;;29.50;;
35689;SDS011;26977;44.830;-0.674;2022-12-07T07:55:53;67.60;;;29.17;;
35689;SDS011;26977;44.830;-0.674;2022-12-07T07:58:19;61.05;;;27.95;;
35689;SDS011;26977;44.830;-0.674;2022-12-07T08:00:45;57.95;;;26.80;;
35689;SDS011;26977;44.830;-0.674;2022-12-07T08:03:11;64.35;;;28.27;;
35689;SDS011;26977;44.830;-0.674;2022-12-07T08:05:37;60.67;;;27.48;;
35689;SDS011;26977;44.830;-0.674;2022-12-07T08:08:03;61.17;;;27.15;;
35689;SDS011;26977;44.830;-0.674;2022-12-07T08:10:29;57.38;;;26.75;;
35689;SDS011;26977;44.830;-0.674;2022-12-07T08:12:56;51.88;;;24.52;;
35689;SDS011;26977;44.830;-0.674;2022-12-07T08:15:44;62.60;;;30.10;;
35689;SDS011;26977;44.830;-0.674;2022-12-07T08:18:12;56.05;;;26.35;;
35689;SDS011;26977;44.830;-0.674;2022-12-07T08:20:38;57.95;;;26.80;;
35689;SDS011;26977;44.830;-0.674;2022-12-07T08:23:05;70.43;;;28.23;;
35689;SDS011;26977;44.830;-0.674;2022-12-07T08:25:31;67.13;;;29.35;;
35689;SDS011;26977;44.830;-0.674;2022-12-07T08:27:58;56.90;;;26.92;;
35689;SDS011;26977;44.830;-0.674;2022-12-07T08:30:25;57.83;;;28.65;;
35689;SDS011;26977;44.830;-0.674;2022-12-07T08:32:51;52.63;;;26.75;;
35689;SDS011;26977;44.830;-0.674;2022-12-07T08:35:17;62.60;;;30.02;;
35689;SDS011;26977;44.830;-0.674;2022-12-07T08:37:43;62.63;;;30.00;;
35689;SDS011;26977;44.830;-0.674;2022-12-07T08:40:10;62.30;;;29.33;;
35689;SDS011;26977;44.830;-0.674;2022-12-07T08:42:40;53.85;;;29.42;;
35689;SDS011;26977;44.830;-0.674;2022-12-07T08:45:07;53.35;;;26.52;;
35689;SDS011;26977;44.830;-0.674;2022-12-07T08:47:39;55.75;;;27.63;;
35689;SDS011;26977;44.830;-0.674;2022-12-07T08:50:11;49.83;;;24.83;;
35689;SDS011;26977;44.830;-0.674;2022-12-07T08:52:37;54.60;;;27.00;;
35689;SDS011;26977;44.830;-0.674;2022-12-07T08:55:06;54.00;;;25.17;;
35689;SDS011;26977;44.830;-0.674;2022-12-07T08:57:33;56.95;;;26.65;;
35689;SDS011;26977;44.830;-0.674;2022-12-07T09:00:00;54.03;;;25.77;;
35689;SDS011;26977;44.830;-0.674;2022-12-07T09:02:26;50.97;;;24.08;;
35689;SDS011;26977;44.830;-0.674;2022-12-07T09:04:52;47.78;;;25.10;;
35689;SDS011;26977;44.830;-0.674;2022-12-07T09:07:17;48.72;;;24.17;;
35689;SDS011;26977;44.830;-0.674;2022-12-07T09:09:43;53.55;;;24.05;;
35689;SDS011;26977;44.830;-0.674;2022-12-07T09:12:09;46.90;;;23.92;;
35689;SDS011;26977;44.830;-0.674;2022-12-07T09:14:35;50.65;;;24.15;;
35689;SDS011;26977;44.830;-0.674;2022-12-07T09:17:04;43.05;;;20.92;;
35689;SDS011;26977;44.830;-0.674;2022-12-07T09:19:34;44.00;;;21.23;;
35689;SDS011;26977;44.830;-0.674;2022-12-07T09:22:00;40.97;;;19.63;;
35689;SDS011;26977;44.830;-0.674;2022-12-07T09:24:26;44.00;;;19.70;;
35689;SDS011;26977;44.830;-0.674;2022-12-07T09:26:52;44.25;;;20.48;;
35689;SDS011;26977;44.830;-0.674;2022-12-07T09:29:17;37.83;;;19.67;;
35689;SDS011;26977;44.830;-0.674;2022-12-07T09:31:43;37.97;;;18.95;;
35689;SDS011;26977;44.830;-0.674;2022-12-07T09:34:09;36.10;;;18.45;;
35689;SDS011;26977;44.830;-0.674;2022-12-07T09:36:34;33.47;;;17.60;;
35689;SDS011;26977;44.830;-0.674;2022-12-07T09:39:00;38.00;;;18.85;;
35689;SDS011;26977;44.830;-0.674;2022-12-07T09:41:26;33.38;;;17.48;;
35689;SDS011;26977;44.830;-0.674;2022-12-07T09:43:56;37.95;;;17.60;;
35689;SDS011;26977;44.830;-0.674;2022-12-07T09:46:35;38.42;;;17.23;;
35689;SDS011;26977;44.830;-0.674;2022-12-07T09:49:03;36.53;;;17.35;;
35689;SDS011;26977;44.830;-0.674;2022-12-07T09:51:30;36.63;;;17.30;;
35689;SDS011;26977;44.830;-0.674;2022-12-07T09:53:57;29.92;;;15.85;;
35689;SDS011;26977;44.830;-0.674;2022-12-07T09:56:25;30.52;;;16.30;;
35689;SDS011;26977;44.830;-0.674;2022-12-07T09:58:51;29.75;;;15.63;;
35689;SDS011;26977;44.830;-0.674;2022-12-07T10:01:24;30.25;;;16.08;;
35689;SDS011;26977;44.830;-0.674;2022-12-07T10:03:54;29.60;;;15.45;;
35689;SDS011;26977;44.830;-0.674;2022-12-07T10:06:25;30.80;;;15.43;;
35689;SDS011;26977;44.830;-0.674;2022-12-07T10:08:51;28.75;;;14.80;;
35689;SDS011;26977;44.830;-0.674;2022-12-07T10:11:17;31.58;;;16.35;;
35689;SDS011;26977;44.830;-0.674;2022-12-07T10:16:57;27.52;;;15.25;;
35689;SDS011;26977;44.830;-0.674;2022-12-07T10:19:18;31.10;;;15.35;;
35689;SDS011;26977;44.830;-0.674;2022-12-07T10:22:01;26.38;;;14.80;;
35689;SDS011;26977;44.830;-0.674;2022-12-07T10:24:29;30.90;;;15.18;;
35689;SDS011;26977;44.830;-0.674;2022-12-07T10:26:55;27.50;;;15.52;;
35689;SDS011;26977;44.830;-0.674;2022-12-07T10:34:32;25.38;;;14.63;;
35689;SDS011;26977;44.830;-0.674;2022-12-07T10:39:53;24.13;;;13.35;;
35689;SDS011;26977;44.830;-0.674;2022-12-07T10:42:24;26.98;;;13.80;;
35689;SDS011;26977;44.830;-0.674;2022-12-07T10:50:23;28.30;;;14.98;;
35689;SDS011;26977;44.830;-0.674;2022-12-07T11:06:39;31.98;;;15.73;;
35689;SDS011;26977;44.830;-0.674;2022-12-07T11:33:07;24.83;;;15.10;;
35689;SDS011;26977;44.830;-0.674;2022-12-07T11:38:38;26.85;;;15.32;;
35689;SDS011;26977;44.830;-0.674;2022-12-07T11:41:19;23.48;;;14.90;;
35689;SDS011;26977;44.830;-0.674;2022-12-07T11:43:56;22.58;;;13.35;;
35689;SDS011;26977;44.830;-0.674;2022-12-07T11:46:52;22.30;;;11.73;;
35689;SDS011;26977;44.830;-0.674;2022-12-07T11:52:25;24.98;;;14.88;;
35689;SDS011;26977;44.830;-0.674;2022-12-07T11:54:57;19.10;;;12.07;;
35689;SDS011;26977;44.830;-0.674;2022-12-07T11:57:37;19.52;;;12.55;;
35689;SDS011;26977;44.830;-0.674;2022-12-07T12:00:12;19.40;;;12.10;;
35689;SDS011;26977;44.830;-0.674;2022-12-07T12:02:52;20.92;;;12.85;;
35689;SDS011;26977;44.830;-0.674;2022-12-07T12:05:35;20.58;;;11.95;;
35689;SDS011;26977;44.830;-0.674;2022-12-07T12:08:03;22.10;;;11.18;;
35689;SDS011;26977;44.830;-0.674;2022-12-07T12:13:51;16.30;;;9.98;;
35689;SDS011;26977;44.830;-0.674;2022-12-07T12:19:15;17.65;;;9.57;;
35689;SDS011;26977;44.830;-0.674;2022-12-07T12:22:12;16.05;;;10.68;;
35689;SDS011;26977;44.830;-0.674;2022-12-07T12:24:40;15.88;;;10.05;;
35689;SDS011;26977;44.830;-0.674;2022-12-07T12:27:24;16.90;;;10.30;;
35689;SDS011;26977;44.830;-0.674;2022-12-07T12:29:52;17.90;;;9.93;;
35689;SDS011;26977;44.830;-0.674;2022-12-07T12:32:20;18.15;;;10.90;;
35689;SDS011;26977;44.830;-0.674;2022-12-07T12:37:54;16.20;;;9.93;;
35689;SDS011;26977;44.830;-0.674;2022-12-07T12:42:47;15.05;;;10.15;;
35689;SDS011;26977;44.830;-0.674;2022-12-07T12:45:23;16.95;;;9.05;;
35689;SDS011;26977;44.830;-0.674;2022-12-07T12:47:54;15.52;;;9.50;;
35689;SDS011;26977;44.830;-0.674;2022-12-07T12:50:33;20.23;;;9.43;;
35689;SDS011;26977;44.830;-0.674;2022-12-07T12:53:02;15.02;;;9.18;;
35689;SDS011;26977;44.830;-0.674;2022-12-07T12:58:28;17.13;;;9.50;;
35689;SDS011;26977;44.830;-0.674;2022-12-07T13:03:59;15.93;;;8.90;;
35689;SDS011;26977;44.830;-0.674;2022-12-07T13:08:55;15.32;;;9.43;;
35689;SDS011;26977;44.830;-0.674;2022-12-07T13:17:02;14.90;;;9.18;;
35689;SDS011;26977;44.830;-0.674;2022-12-07T13:25:05;15.10;;;9.40;;
35689;SDS011;26977;44.830;-0.674;2022-12-07T13:27:32;13.90;;;8.75;;
35689;SDS011;26977;44.830;-0.674;2022-12-07T13:30:02;13.73;;;8.68;;
35689;SDS011;26977;44.830;-0.674;2022-12-07T13:32:40;11.45;;;7.97;;
35689;SDS011;26977;44.830;-0.674;2022-12-07T13:37:54;12.90;;;7.90;;
35689;SDS011;26977;44.830;-0.674;2022-12-07T13:40:21;12.98;;;7.85;;
35689;SDS011;26977;44.830;-0.674;2022-12-07T13:42:47;17.33;;;8.48;;
35689;SDS011;26977;44.830;-0.674;2022-12-07T13:45:23;15.02;;;8.88;;
35689;SDS011;26977;44.830;-0.674;2022-12-07T13:48:14;17.08;;;9.40;;
35689;SDS011;26977;44.830;-0.674;2022-12-07T13:51:00;13.07;;;8.00;;
35689;SDS011;26977;44.830;-0.674;2022-12-07T13:53:28;16.90;;;9.02;;
35689;SDS011;26977;44.830;-0.674;2022-12-07T13:55:56;13.90;;;8.75;;
35689;SDS011;26977;44.830;-0.674;2022-12-07T13:58:23;15.85;;;8.93;;
35689;SDS011;26977;44.830;-0.674;2022-12-07T14:00:50;16.33;;;8.82;;
35689;SDS011;26977;44.830;-0.674;2022-12-07T14:05:42;16.52;;;8.85;;
35689;SDS011;26977;44.830;-0.674;2022-12-07T14:10:36;22.13;;;8.65;;
35689;SDS011;26977;44.830;-0.674;2022-12-07T14:15:50;14.90;;;8.60;;
35689;SDS011;26977;44.830;-0.674;2022-12-07T14:18:30;11.65;;;8.15;;
35689;SDS011;26977;44.830;-0.674;2022-12-07T14:21:25;17.48;;;8.43;;
35689;SDS011;26977;44.830;-0.674;2022-12-07T14:24:08;18.45;;;9.35;;
35689;SDS011;26977;44.830;-0.674;2022-12-07T14:26:40;13.20;;;8.27;;
35689;SDS011;26977;44.830;-0.674;2022-12-07T14:31:50;17.40;;;8.88;;
35689;SDS011;26977;44.830;-0.674;2022-12-07T14:34:16;14.13;;;8.07;;
35689;SDS011;26977;44.830;-0.674;2022-12-07T14:36:45;16.85;;;9.20;;
35689;SDS011;26977;44.830;-0.674;2022-12-07T14:39:11;16.60;;;8.63;;
35689;SDS011;26977;44.830;-0.674;2022-12-07T14:41:36;15.52;;;8.60;;
35689;SDS011;26977;44.830;-0.674;2022-12-07T14:44:21;18.33;;;8.65;;
35689;SDS011;26977;44.830;-0.674;2022-12-07T14:46:48;15.35;;;9.00;;
35689;SDS011;26977;44.830;-0.674;2022-12-07T14:49:15;21.38;;;8.90;;
35689;SDS011;26977;44.830;-0.674;2022-12-07T14:51:41;20.67;;;8.48;;
35689;SDS011;26977;44.830;-0.674;2022-12-07T14:54:18;29.90;;;13.88;;
35689;SDS011;26977;44.830;-0.674;2022-12-07T14:56:45;19.23;;;9.25;;
35689;SDS011;26977;44.830;-0.674;2022-12-07T14:59:15;17.30;;;8.60;;
35689;SDS011;26977;44.830;-0.674;2022-12-07T15:01:41;16.00;;;8.82;;
35689;SDS011;26977;44.830;-0.674;2022-12-07T15:04:07;17.17;;;9.00;;
35689;SDS011;26977;44.830;-0.674;2022-12-07T15:06:32;16.67;;;9.00;;
35689;SDS011;26977;44.830;-0.674;2022-12-07T15:08:58;15.73;;;9.32;;
35689;SDS011;26977;44.830;-0.674;2022-12-07T15:11:24;15.50;;;8.25;;
35689;SDS011;26977;44.830;-0.674;2022-12-07T15:13:49;14.10;;;8.52;;
35689;SDS011;26977;44.830;-0.674;2022-12-07T15:18:59;18.52;;;8.32;;
35689;SDS011;26977;44.830;-0.674;2022-12-07T15:21:24;17.42;;;9.38;;
35689;SDS011;26977;44.830;-0.674;2022-12-07T15:23:50;18.77;;;9.50;;
35689;SDS011;26977;44.830;-0.674;2022-12-07T15:26:16;22.80;;;9.52;;
35689;SDS011;26977;44.830;-0.674;2022-12-07T15:28:42;17.35;;;9.82;;
35689;SDS011;26977;44.830;-0.674;2022-12-07T15:31:15;20.60;;;9.85;;
35689;SDS011;26977;44.830;-0.674;2022-12-07T15:33:42;18.77;;;9.13;;
35689;SDS011;26977;44.830;-0.674;2022-12-07T15:36:09;17.65;;;9.63;;
35689;SDS011;26977;44.830;-0.674;2022-12-07T15:38:51;16.23;;;9.32;;
35689;SDS011;26977;44.830;-0.674;2022-12-07T15:41:17;19.25;;;10.25;;
35689;SDS011;26977;44.830;-0.674;2022-12-07T15:43:43;15.75;;;8.63;;
35689;SDS011;26977;44.830;-0.674;2022-12-07T15:46:31;18.42;;;9.57;;
35689;SDS011;26977;44.830;-0.674;2022-12-07T15:49:11;17.63;;;9.95;;
35689;SDS011;26977;44.830;-0.674;2022-12-07T15:51:39;24.45;;;9.73;;
35689;SDS011;26977;44.830;-0.674;2022-12-07T15:54:07;22.02;;;10.57;;
35689;SDS011;26977;44.830;-0.674;2022-12-07T15:56:36;19.83;;;11.15;;
35689;SDS011;26977;44.830;-0.674;2022-12-07T15:59:02;18.75;;;10.90;;
35689;SDS011;26977;44.830;-0.674;2022-12-07T16:01:28;19.23;;;10.23;;
35689;SDS011;26977;44.830;-0.674;2022-12-07T16:03:54;18.58;;;11.07;;
35689;SDS011;26977;44.830;-0.674;2022-12-07T16:06:21;16.83;;;9.63;;
35689;SDS011;26977;44.830;-0.674;2022-12-07T16:08:47;18.17;;;10.32;;
35689;SDS011;26977;44.830;-0.674;2022-12-07T16:11:13;19.52;;;10.48;;
35689;SDS011;26977;44.830;-0.674;2022-12-07T16:13:39;18.20;;;10.50;;
35689;SDS011;26977;44.830;-0.674;2022-12-07T16:16:05;21.17;;;10.70;;
35689;SDS011;26977;44.830;-0.674;2022-12-07T16:18:35;22.50;;;11.38;;
35689;SDS011;26977;44.830;-0.674;2022-12-07T16:21:01;24.42;;;10.75;;
35689;SDS011;26977;44.830;-0.674;2022-12-07T16:23:27;19.98;;;10.77;;
35689;SDS011;26977;44.830;-0.674;2022-12-07T16:25:53;25.00;;;10.52;;
35689;SDS011;26977;44.830;-0.674;2022-12-07T16:28:18;20.50;;;11.60;;
35689;SDS011;26977;44.830;-0.674;2022-12-07T16:30:44;24.90;;;11.23;;
35689;SDS011;26977;44.830;-0.674;2022-12-07T16:33:10;19.40;;;11.00;;
35689;SDS011;26977;44.830;-0.674;2022-12-07T16:35:39;21.55;;;11.88;;
35689;SDS011;26977;44.830;-0.674;2022-12-07T16:38:08;22.77;;;11.70;;
35689;SDS011;26977;44.830;-0.674;2022-12-07T16:40:34;23.33;;;12.30;;